Time;durP1;ratioP1;P1;durP2;ratioP2;P2;SDS_P1;SDS_P2;PMS_P1;PMS_P2;Temp;Humidity;BMP_temperature;BMP_pressure;BME280_temperature;BME280_humidity;BME280_pressure;Samples;Min_cycle;Max_cycle;Signal;HPM_P1;HPM_P2
2022/06/20 00:00:26;;;;;;;0.47;0.20;;;;;;;;;;5113342;28;20084;-73
2022/06/20 00:02:54;;;;;;;3.87;0.60;;;;;;;;;;5108548;28;20035;-72
2022/06/20 00:05:22;;;;;;;1.07;0.30;;;;;;;;;;5097987;28;20103;-71
2022/06/20 00:07:49;;;;;;;1.30;0.37;;;;;;;;;;5092815;28;20043;-70
2022/06/20 00:10:17;;;;;;;0.93;0.30;;;;;;;;;;5088104;28;20448;-68
2022/06/20 00:12:44;;;;;;;0.50;0.30;;;;;;;;;;5088491;28;20469;-69
2022/06/20 00:15:31;;;;;;;0.77;0.20;;;;;;;;;;5087943;28;20028;-72
2022/06/20 00:17:59;;;;;;;1.10;0.40;;;;;;;;;;5097164;28;20061;-80
2022/06/20 00:20:26;;;;;;;1.53;0.30;;;;;;;;;;5113395;28;20027;-77
2022/06/20 00:22:52;;;;;;;0.53;0.20;;;;;;;;;;5113582;28;20034;-77
2022/06/20 00:25:19;;;;;;;0.50;0.30;;;;;;;;;;5112768;28;20024;-71
2022/06/20 00:27:46;;;;;;;0.67;0.40;;;;;;;;;;5101925;28;20015;-72
2022/06/20 00:30:14;;;;;;;3.03;0.60;;;;;;;;;;5111215;28;20081;-72
2022/06/20 00:32:41;;;;;;;1.83;0.30;;;;;;;;;;5101578;28;20035;-72
2022/06/20 00:35:08;;;;;;;2.53;0.70;;;;;;;;;;5087873;28;20024;-72
2022/06/20 00:37:34;;;;;;;3.77;0.80;;;;;;;;;;5089806;28;20028;-72
2022/06/20 00:40:01;;;;;;;1.30;0.43;;;;;;;;;;5107547;28;20031;-71
2022/06/20 00:42:28;;;;;;;1.00;0.40;;;;;;;;;;5106584;28;20089;-71
2022/06/20 00:44:58;;;;;;;1.33;0.40;;;;;;;;;;5093059;28;20341;-72
2022/06/20 00:47:26;;;;;;;1.17;0.50;;;;;;;;;;5092725;28;20020;-72
2022/06/20 00:49:55;;;;;;;2.33;0.40;;;;;;;;;;5092856;28;20059;-72
2022/06/20 00:52:34;;;;;;;0.60;0.30;;;;;;;;;;5091936;28;20132;-72
2022/06/20 00:55:06;;;;;;;0.70;0.43;;;;;;;;;;5089151;28;20028;-72
2022/06/20 00:57:51;;;;;;;2.63;0.57;;;;;;;;;;5103290;28;20076;-72
2022/06/20 01:00:20;;;;;;;4.22;0.70;;;;;;;;;;5087236;28;20028;-72
2022/06/20 01:02:52;;;;;;;1.10;0.40;;;;;;;;;;5091746;28;20461;-68
2022/06/20 01:05:20;;;;;;;1.40;0.73;;;;;;;;;;5102079;28;20067;-71
2022/06/20 01:08:10;;;;;;;2.60;0.80;;;;;;;;;;5092576;28;20016;-72
2022/06/20 01:10:43;;;;;;;1.47;0.57;;;;;;;;;;5092349;28;20028;-71
2022/06/20 01:13:16;;;;;;;4.53;1.10;;;;;;;;;;5092147;28;20419;-71
2022/06/20 01:15:43;;;;;;;2.73;0.77;;;;;;;;;;5101803;28;20031;-71
2022/06/20 01:18:14;;;;;;;4.87;1.30;;;;;;;;;;5106916;28;20513;-71
2022/06/20 01:20:43;;;;;;;2.47;0.40;;;;;;;;;;5107018;28;20031;-71
2022/06/20 01:23:28;;;;;;;2.07;0.87;;;;;;;;;;5106921;28;20106;-71
2022/06/20 01:25:55;;;;;;;;;;;;;;;;;;5110382;28;20110;-71
2022/06/20 01:28:27;;;;;;;2.20;0.50;;;;;;;;;;5110654;28;19958;-71
2022/06/20 01:30:54;;;;;;;2.17;0.77;;;;;;;;;;5092050;28;20105;-71
2022/06/20 01:33:21;;;;;;;0.80;0.30;;;;;;;;;;5092009;28;20043;-71
2022/06/20 01:38:37;;;;;;;1.07;0.50;;;;;;;;;;5088761;28;20551;-72
2022/06/20 01:43:49;;;;;;;1.15;0.45;;;;;;;;;;5086357;28;20063;-71
2022/06/20 01:46:16;;;;;;;0.73;0.30;;;;;;;;;;5103819;28;20174;-71
2022/06/20 01:48:52;;;;;;;0.50;0.30;;;;;;;;;;5132589;28;20076;-71
2022/06/20 01:51:28;;;;;;;0.57;0.30;;;;;;;;;;5095439;28;20028;-72
2022/06/20 01:53:55;;;;;;;1.27;0.50;;;;;;;;;;5091960;28;20474;-71
2022/06/20 01:56:23;;;;;;;0.77;0.33;;;;;;;;;;5109946;28;20027;-71
2022/06/20 01:58:52;;;;;;;6.23;0.67;;;;;;;;;;5107565;28;20039;-71
2022/06/20 02:01:19;;;;;;;1.30;0.53;;;;;;;;;;5092150;28;20177;-71
2022/06/20 02:03:47;;;;;;;0.67;0.43;;;;;;;;;;5106286;28;20498;-71
2022/06/20 02:06:15;;;;;;;0.90;0.40;;;;;;;;;;5106306;28;20482;-71
2022/06/20 02:08:42;;;;;;;0.60;0.30;;;;;;;;;;5106158;28;20540;-71
2022/06/20 02:11:20;;;;;;;0.77;0.33;;;;;;;;;;5112093;28;20028;-71
2022/06/20 02:13:49;;;;;;;1.00;0.30;;;;;;;;;;5112358;28;20015;-71
2022/06/20 02:16:18;;;;;;;1.43;0.27;;;;;;;;;;5111485;28;20036;-71
2022/06/20 02:18:47;;;;;;;0.50;0.30;;;;;;;;;;5106688;28;20016;-71
2022/06/20 02:21:19;;;;;;;0.20;0.20;;;;;;;;;;5090268;28;20036;-71
2022/06/20 02:23:48;;;;;;;0.50;0.30;;;;;;;;;;5086061;28;20913;-71
2022/06/20 02:26:15;;;;;;;3.07;0.40;;;;;;;;;;5106381;28;20509;-71
2022/06/20 02:29:02;;;;;;;0.97;0.30;;;;;;;;;;5110522;28;20028;-71
2022/06/20 02:31:29;;;;;;;0.43;0.23;;;;;;;;;;5093225;28;20028;-71
2022/06/20 02:33:56;;;;;;;0.40;0.20;;;;;;;;;;5110702;28;20371;-71
2022/06/20 02:36:23;;;;;;;1.00;0.30;;;;;;;;;;5115574;28;20036;-71
2022/06/20 02:38:50;;;;;;;4.83;0.40;;;;;;;;;;5115471;28;20024;-71
2022/06/20 02:41:18;;;;;;;0.47;0.30;;;;;;;;;;5101741;28;20474;-71
2022/06/20 02:43:50;;;;;;;1.60;0.37;;;;;;;;;;5109863;28;20036;-71
2022/06/20 02:46:19;;;;;;;2.37;0.30;;;;;;;;;;5090207;28;20016;-71
2022/06/20 02:48:48;;;;;;;1.13;0.43;;;;;;;;;;5118739;27;20127;-71
2022/06/20 02:51:21;;;;;;;0.40;0.20;;;;;;;;;;5122035;27;20028;-71
2022/06/20 02:53:50;;;;;;;0.93;0.40;;;;;;;;;;5091978;28;20020;-71
2022/06/20 02:56:18;;;;;;;0.70;0.20;;;;;;;;;;5111406;28;20463;-71
2022/06/20 02:58:48;;;;;;;3.03;0.70;;;;;;;;;;5094333;28;20055;-71
2022/06/20 03:01:17;;;;;;;1.03;0.43;;;;;;;;;;5094815;28;20032;-71
2022/06/20 03:03:46;;;;;;;0.33;0.30;;;;;;;;;;5105548;28;20032;-71
2022/06/20 03:06:22;;;;;;;0.30;0.30;;;;;;;;;;5112341;28;20065;-71
2022/06/20 03:08:49;;;;;;;0.50;0.30;;;;;;;;;;5109649;28;20026;-71
2022/06/20 03:11:16;;;;;;;0.40;0.30;;;;;;;;;;5108867;28;20031;-71
2022/06/20 03:13:42;;;;;;;0.63;0.40;;;;;;;;;;5108967;28;20024;-71
2022/06/20 03:16:10;;;;;;;1.30;0.53;;;;;;;;;;5111086;28;20023;-71
2022/06/20 03:18:45;;;;;;;0.93;0.57;;;;;;;;;;5106093;28;20032;-71
2022/06/20 03:21:12;;;;;;;1.13;0.40;;;;;;;;;;5095441;28;20024;-71
2022/06/20 03:23:39;;;;;;;0.37;0.27;;;;;;;;;;5095196;28;20032;-70
2022/06/20 03:26:07;;;;;;;0.53;0.40;;;;;;;;;;5094294;28;20032;-71
2022/06/20 03:28:34;;;;;;;2.47;0.80;;;;;;;;;;5091663;28;20032;-71
2022/06/20 03:31:01;;;;;;;1.47;0.43;;;;;;;;;;5104535;28;20024;-71
2022/06/20 03:33:29;;;;;;;1.90;0.50;;;;;;;;;;5108753;28;20031;-71
2022/06/20 03:35:58;;;;;;;2.20;0.57;;;;;;;;;;5089630;28;20024;-71
2022/06/20 03:38:26;;;;;;;0.43;0.30;;;;;;;;;;5096423;28;20027;-71
2022/06/20 03:40:52;;;;;;;1.53;0.40;;;;;;;;;;5104284;28;20024;-71
2022/06/20 03:43:23;;;;;;;1.40;0.50;;;;;;;;;;5113111;28;20449;-71
2022/06/20 03:45:52;;;;;;;1.90;0.57;;;;;;;;;;5107216;28;20016;-71
2022/06/20 03:48:25;;;;;;;1.37;0.60;;;;;;;;;;5104578;28;20081;-71
2022/06/20 03:50:57;;;;;;;0.93;0.60;;;;;;;;;;5111242;28;20023;-71
2022/06/20 03:53:33;;;;;;;1.43;0.50;;;;;;;;;;5108589;28;20102;-71
2022/06/20 03:56:05;;;;;;;0.30;0.20;;;;;;;;;;5107376;28;20031;-71
2022/06/20 03:58:32;;;;;;;0.87;0.50;;;;;;;;;;5092478;28;20023;-71
2022/06/20 04:01:18;;;;;;;1.03;0.40;;;;;;;;;;5103797;28;20462;-71
2022/06/20 04:03:47;;;;;;;1.27;0.47;;;;;;;;;;5106986;28;20632;-71
2022/06/20 04:06:25;;;;;;;2.43;0.33;;;;;;;;;;5099800;28;20089;-71
2022/06/20 04:11:39;;;;;;;2.35;0.40;;;;;;;;;;5093558;28;20181;-71
2022/06/20 04:14:13;;;;;;;3.17;0.53;;;;;;;;;;5087984;28;20506;-71
2022/06/20 04:16:47;;;;;;;2.10;0.50;;;;;;;;;;5087958;28;20134;-71
2022/06/20 04:19:18;;;;;;;0.60;0.40;;;;;;;;;;5090007;28;20047;-71
2022/06/20 04:21:45;;;;;;;4.03;0.43;;;;;;;;;;5107703;28;20025;-71
2022/06/20 04:24:30;;;;;;;0.87;0.20;;;;;;;;;;5113464;28;20079;-71
2022/06/20 04:26:57;;;;;;;0.20;0.20;;;;;;;;;;5113291;28;20030;-70
2022/06/20 04:29:26;;;;;;;0.87;0.50;;;;;;;;;;5113493;28;20090;-71
2022/06/20 04:31:53;;;;;;;2.67;0.57;;;;;;;;;;5097616;28;20061;-71
2022/06/20 04:34:32;;;;;;;2.40;0.40;;;;;;;;;;5092106;28;20039;-71
2022/06/20 04:37:20;;;;;;;2.30;0.40;;;;;;;;;;5089244;28;20024;-71
2022/06/20 04:39:52;;;;;;;0.40;0.30;;;;;;;;;;5107278;28;20030;-71
2022/06/20 04:42:19;;;;;;;1.30;0.50;;;;;;;;;;5096941;28;20055;-71
2022/06/20 04:44:55;;;;;;;0.93;0.40;;;;;;;;;;5100107;28;20486;-71
2022/06/20 04:47:32;;;;;;;0.60;0.20;;;;;;;;;;5095277;28;20048;-71
2022/06/20 04:49:59;;;;;;;2.23;0.33;;;;;;;;;;5112801;28;20393;-71
2022/06/20 04:52:28;;;;;;;1.43;0.40;;;;;;;;;;5112496;28;20126;-71
2022/06/20 04:54:56;;;;;;;0.20;0.20;;;;;;;;;;5113099;28;20027;-71
2022/06/20 04:57:25;;;;;;;2.40;0.40;;;;;;;;;;5109717;28;20020;-70
2022/06/20 04:59:52;;;;;;;1.03;0.30;;;;;;;;;;5107669;28;20023;-71
2022/06/20 05:02:21;;;;;;;0.67;0.30;;;;;;;;;;5099471;28;20055;-71
2022/06/20 05:04:50;;;;;;;1.10;0.40;;;;;;;;;;5087000;28;20024;-72
2022/06/20 05:07:22;;;;;;;0.50;0.20;;;;;;;;;;5089542;28;20035;-70
2022/06/20 05:10:03;;;;;;;0.87;0.20;;;;;;;;;;5092480;28;20028;-71
2022/06/20 05:12:34;;;;;;;0.30;0.20;;;;;;;;;;5092304;28;20024;-71
2022/06/20 05:15:06;;;;;;;0.40;0.20;;;;;;;;;;5092245;28;20402;-71
2022/06/20 05:17:35;;;;;;;0.83;0.10;;;;;;;;;;5092532;28;20475;-71
2022/06/20 05:20:06;;;;;;;0.20;0.20;;;;;;;;;;5088569;28;20016;-71
2022/06/20 05:22:35;;;;;;;0.27;0.20;;;;;;;;;;5086903;28;20486;-71
2022/06/20 05:25:05;;;;;;;0.27;0.10;;;;;;;;;;5089910;28;20424;-71
2022/06/20 05:27:43;;;;;;;0.53;0.20;;;;;;;;;;5106335;28;20533;-71
2022/06/20 05:30:16;;;;;;;0.43;0.40;;;;;;;;;;5110744;28;20024;-70
2022/06/20 05:32:47;;;;;;;0.20;0.20;;;;;;;;;;5101459;28;20056;-71
2022/06/20 05:35:25;;;;;;;0.30;0.20;;;;;;;;;;5092278;28;20032;-71
2022/06/20 05:38:05;;;;;;;0.47;0.23;;;;;;;;;;5092123;28;20039;-71
2022/06/20 05:40:43;;;;;;;0.10;0.10;;;;;;;;;;5107714;28;20024;-71
2022/06/20 05:43:22;;;;;;;0.13;0.10;;;;;;;;;;5086551;28;20024;-71
2022/06/20 05:46:09;;;;;;;0.97;0.20;;;;;;;;;;5086703;28;20021;-71
2022/06/20 05:48:40;;;;;;;0.20;0.10;;;;;;;;;;5034563;28;20088;-71
2022/06/20 05:51:09;;;;;;;0.27;0.13;;;;;;;;;;5108150;28;20484;-71
2022/06/20 05:53:51;;;;;;;0.93;0.20;;;;;;;;;;5098463;28;20020;-71
2022/06/20 05:56:42;;;;;;;0.47;0.20;;;;;;;;;;5092128;28;20035;-71
2022/06/20 05:59:14;;;;;;;0.53;0.30;;;;;;;;;;5082962;28;20489;-71
2022/06/20 06:01:41;;;;;;;1.03;0.20;;;;;;;;;;5095794;28;20467;-71
2022/06/20 06:04:19;;;;;;;1.87;0.50;;;;;;;;;;5108553;28;20580;-71
2022/06/20 06:06:51;;;;;;;0.47;0.17;;;;;;;;;;5110612;28;20030;-71
2022/06/20 06:09:18;;;;;;;0.40;0.30;;;;;;;;;;5110548;28;20058;-71
2022/06/20 06:12:00;;;;;;;0.83;0.40;;;;;;;;;;5101791;28;20051;-71
2022/06/20 06:14:33;;;;;;;2.70;0.40;;;;;;;;;;5093775;28;20020;-71
2022/06/20 06:17:20;;;;;;;0.33;0.30;;;;;;;;;;5104461;28;20016;-71
2022/06/20 06:19:54;;;;;;;0.67;0.30;;;;;;;;;;5098618;28;20046;-71
2022/06/20 06:22:26;;;;;;;0.52;0.32;;;;;;;;;;5115612;28;20056;-71
2022/06/20 06:25:04;;;;;;;1.07;0.30;;;;;;;;;;5116013;28;20023;-71
2022/06/20 06:27:32;;;;;;;0.37;0.10;;;;;;;;;;5110106;28;20028;-71
2022/06/20 06:30:01;;;;;;;1.23;0.30;;;;;;;;;;5110202;28;20031;-71
2022/06/20 06:32:30;;;;;;;0.20;0.20;;;;;;;;;;5099747;28;20024;-71
2022/06/20 06:34:57;;;;;;;0.23;0.20;;;;;;;;;;5098691;28;20073;-71
2022/06/20 06:37:40;;;;;;;0.40;0.20;;;;;;;;;;5115280;28;20474;-71
2022/06/20 06:40:13;;;;;;;0.37;0.30;;;;;;;;;;5115277;28;20032;-71
2022/06/20 06:42:40;;;;;;;0.70;0.20;;;;;;;;;;5099998;28;20471;-71
2022/06/20 06:45:08;;;;;;;1.17;0.20;;;;;;;;;;5113727;28;20023;-71
2022/06/20 06:47:34;;;;;;;0.77;0.20;;;;;;;;;;5114462;28;20802;-71
2022/06/20 06:50:21;;;;;;;0.13;0.13;;;;;;;;;;5109585;28;20031;-71
2022/06/20 06:52:58;;;;;;;0.37;0.20;;;;;;;;;;5109615;28;20089;-71
2022/06/20 06:55:29;;;;;;;1.23;0.33;;;;;;;;;;5109526;28;20028;-71
2022/06/20 06:58:25;;;;;;;0.80;0.43;;;;;;;;;;5102148;28;20506;-71
2022/06/20 07:00:51;;;;;;;;;;;;;;;;;;5078141;28;20041;-71
2022/06/20 07:03:29;;;;;;;1.67;0.37;;;;;;;;;;5094623;28;20010;-71
2022/06/20 07:06:01;;;;;;;1.30;0.40;;;;;;;;;;5094660;28;20103;-71
2022/06/20 07:08:31;;;;;;;0.57;0.30;;;;;;;;;;5094740;28;20024;-71
2022/06/20 07:11:09;;;;;;;0.30;0.30;;;;;;;;;;5090959;28;20032;-71
2022/06/20 07:13:44;;;;;;;0.87;0.30;;;;;;;;;;5089127;28;20031;-71
2022/06/20 07:16:23;;;;;;;2.70;0.50;;;;;;;;;;5090167;28;20031;-71
2022/06/20 07:18:51;;;;;;;1.63;0.57;;;;;;;;;;5088710;28;20031;-71
2022/06/20 07:21:19;;;;;;;1.50;0.40;;;;;;;;;;5103311;28;20448;-71
2022/06/20 07:23:48;;;;;;;0.67;0.30;;;;;;;;;;5114665;28;20381;-71
2022/06/20 07:26:17;;;;;;;1.40;0.37;;;;;;;;;;5114370;28;20027;-71
2022/06/20 07:28:53;;;;;;;1.60;0.50;;;;;;;;;;5109275;28;20020;-71
2022/06/20 07:31:28;;;;;;;0.97;0.40;;;;;;;;;;5093818;28;20020;-71
2022/06/20 07:34:24;;;;;;;2.27;0.40;;;;;;;;;;5089120;28;20024;-71
2022/06/20 07:36:50;;;;;;;;;;;;;;;;;;5075920;28;20046;-71
2022/06/20 07:39:28;;;;;;;0.50;0.30;;;;;;;;;;5108859;28;19904;-71
2022/06/20 07:42:01;;;;;;;0.93;0.43;;;;;;;;;;5099474;28;20446;-71
2022/06/20 07:44:33;;;;;;;0.70;0.30;;;;;;;;;;5105404;28;20085;-71
2022/06/20 07:47:03;;;;;;;0.60;0.27;;;;;;;;;;5098194;28;20047;-71
2022/06/20 07:49:36;;;;;;;0.10;0.10;;;;;;;;;;5104641;28;20462;-71
2022/06/20 07:52:08;;;;;;;0.00;0.00;;;;;;;;;;5114220;28;20055;-71
2022/06/20 07:54:37;;;;;;;0.10;0.10;;;;;;;;;;5112672;28;20024;-71
2022/06/20 07:57:12;;;;;;;0.40;0.20;;;;;;;;;;5108312;28;20049;-71
2022/06/20 07:59:43;;;;;;;0.55;0.20;;;;;;;;;;5107728;28;20103;-72
2022/06/20 08:02:13;;;;;;;2.07;0.40;;;;;;;;;;5107868;28;20040;-71
2022/06/20 08:04:40;;;;;;;0.30;0.10;;;;;;;;;;5110164;28;20019;-71
2022/06/20 08:07:09;;;;;;;1.57;0.20;;;;;;;;;;5109792;28;20058;-71
2022/06/20 08:09:38;;;;;;;1.40;0.10;;;;;;;;;;5113626;28;20482;-71
2022/06/20 08:12:20;;;;;;;0.40;0.20;;;;;;;;;;5113097;28;20436;-71
2022/06/20 08:14:47;;;;;;;1.03;0.20;;;;;;;;;;5113479;28;20107;-71
2022/06/20 08:17:14;;;;;;;0.20;0.10;;;;;;;;;;5097412;28;20435;-71
2022/06/20 08:19:42;;;;;;;1.47;0.30;;;;;;;;;;5088023;28;20017;-71
2022/06/20 08:22:15;;;;;;;0.20;0.10;;;;;;;;;;5098283;28;20039;-70
2022/06/20 08:24:41;;;;;;;0.40;0.20;;;;;;;;;;5107485;28;20055;-71
2022/06/20 08:27:10;;;;;;;0.10;0.10;;;;;;;;;;5099303;28;20505;-71
2022/06/20 08:29:41;;;;;;;0.50;0.30;;;;;;;;;;5094239;28;20050;-71
2022/06/20 08:32:16;;;;;;;0.70;0.30;;;;;;;;;;5112096;28;20069;-71
2022/06/20 08:34:51;;;;;;;0.20;0.15;;;;;;;;;;5113122;28;20031;-71
2022/06/20 08:37:31;;;;;;;0.50;0.32;;;;;;;;;;5113101;28;20062;-71
2022/06/20 08:40:23;;;;;;;0.90;0.30;;;;;;;;;;5109410;28;20034;-71
2022/06/20 08:42:56;;;;;;;1.03;0.27;;;;;;;;;;5055731;28;20415;-71
2022/06/20 08:45:38;;;;;;;1.50;0.43;;;;;;;;;;5089400;28;20024;-71
2022/06/20 08:48:08;;;;;;;0.87;0.40;;;;;;;;;;5097362;28;20024;-71
2022/06/20 08:50:47;;;;;;;2.20;0.50;;;;;;;;;;5112796;28;20027;-71
2022/06/20 08:53:32;;;;;;;1.53;0.70;;;;;;;;;;5092685;28;20024;-71
2022/06/20 08:56:04;;;;;;;2.22;0.40;;;;;;;;;;5092589;28;20103;-71
2022/06/20 08:58:50;;;;;;;1.10;0.53;;;;;;;;;;5092773;28;20020;-71
2022/06/20 09:01:25;;;;;;;1.58;0.70;;;;;;;;;;5091679;28;20028;-71
2022/06/20 09:04:05;;;;;;;0.50;0.30;;;;;;;;;;5100483;28;20038;-71
2022/06/20 09:06:56;;;;;;;0.30;0.30;;;;;;;;;;5106678;28;20028;-71
2022/06/20 09:09:35;;;;;;;0.53;0.30;;;;;;;;;;5098641;28;20020;-71
2022/06/20 09:12:20;;;;;;;1.93;0.20;;;;;;;;;;5090214;28;20486;-71
2022/06/20 09:14:55;;;;;;;1.98;0.40;;;;;;;;;;5092031;28;20024;-71
2022/06/20 09:17:21;;;;;;;;;;;;;;;;;;5092901;28;20024;-71
2022/06/20 09:19:57;;;;;;;0.57;0.27;;;;;;;;;;5108463;28;19915;-71
2022/06/20 09:22:38;;;;;;;0.40;0.30;;;;;;;;;;5112085;28;20038;-71
2022/06/20 09:25:07;;;;;;;0.20;0.20;;;;;;;;;;5107390;28;20016;-71
2022/06/20 09:27:34;;;;;;;0.80;0.30;;;;;;;;;;5106862;28;20027;-71
2022/06/20 09:30:04;;;;;;;0.87;0.30;;;;;;;;;;5091848;28;20032;-71
2022/06/20 09:32:49;;;;;;;0.53;0.13;;;;;;;;;;5095229;28;20027;-71
2022/06/20 09:35:19;;;;;;;1.70;0.50;;;;;;;;;;5111948;28;20051;-71
2022/06/20 09:37:52;;;;;;;2.53;0.40;;;;;;;;;;5112312;28;20099;-72
2022/06/20 09:40:37;;;;;;;1.93;0.50;;;;;;;;;;5112653;28;20126;-71
2022/06/20 09:43:10;;;;;;;0.20;0.20;;;;;;;;;;5092772;28;20062;-71
2022/06/20 09:45:37;;;;;;;0.63;0.30;;;;;;;;;;5090145;28;20480;-71
2022/06/20 09:48:06;;;;;;;3.80;1.07;;;;;;;;;;5104770;28;20586;-71
2022/06/20 09:50:33;;;;;;;2.70;0.60;;;;;;;;;;5099885;28;20095;-71
2022/06/20 09:52:59;;;;;;;0.83;0.30;;;;;;;;;;5102945;28;20055;-71
2022/06/20 09:55:26;;;;;;;1.37;0.50;;;;;;;;;;5088026;28;20031;-72
2022/06/20 09:58:11;;;;;;;3.17;0.60;;;;;;;;;;5091604;28;20040;-71
2022/06/20 10:00:41;;;;;;;2.70;0.70;;;;;;;;;;5092010;28;20478;-71
2022/06/20 10:03:40;;;;;;;0.60;0.50;;;;;;;;;;5091535;28;20036;-71
2022/06/20 10:06:12;;;;;;;0.63;0.40;;;;;;;;;;5047551;28;20181;-71
2022/06/20 10:08:59;;;;;;;1.33;0.30;;;;;;;;;;5087934;28;20016;-71
2022/06/20 10:11:45;;;;;;;2.30;0.40;;;;;;;;;;5091223;28;20038;-71
2022/06/20 10:14:16;;;;;;;0.60;0.33;;;;;;;;;;5106792;28;20024;-71
2022/06/20 10:16:52;;;;;;;1.37;0.30;;;;;;;;;;5098958;28;20066;-71
2022/06/20 10:19:35;;;;;;;1.07;0.60;;;;;;;;;;5091492;28;20482;-70
2022/06/20 10:22:08;;;;;;;3.03;0.50;;;;;;;;;;5107770;28;20107;-71
2022/06/20 10:24:35;;;;;;;1.93;0.70;;;;;;;;;;5112261;28;20032;-71
2022/06/20 10:27:12;;;;;;;1.13;0.50;;;;;;;;;;5111437;28;20020;-71
2022/06/20 10:29:49;;;;;;;1.77;0.80;;;;;;;;;;5109999;28;20055;-70
2022/06/20 10:32:21;;;;;;;2.93;0.70;;;;;;;;;;5097536;28;20032;-72
2022/06/20 10:34:59;;;;;;;1.60;1.00;;;;;;;;;;5086298;28;20037;-71
2022/06/20 10:37:26;;;;;;;2.37;0.80;;;;;;;;;;5087014;28;20540;-71
2022/06/20 10:39:52;;;;;;;1.97;0.80;;;;;;;;;;5107806;28;20024;-70
2022/06/20 10:42:30;;;;;;;1.00;0.70;;;;;;;;;;5098836;28;20540;-71
2022/06/20 10:44:57;;;;;;;1.63;0.90;;;;;;;;;;5091545;28;20028;-70
2022/06/20 10:47:23;;;;;;;1.50;1.00;;;;;;;;;;5093985;28;20367;-71
2022/06/20 10:50:06;;;;;;;1.47;0.90;;;;;;;;;;5095251;28;20021;-71
2022/06/20 10:52:39;;;;;;;2.27;1.10;;;;;;;;;;5105107;28;20020;-72
2022/06/20 10:55:09;;;;;;;1.53;0.80;;;;;;;;;;5109419;28;20358;-71
2022/06/20 10:57:54;;;;;;;1.30;0.80;;;;;;;;;;5109388;28;20027;-71
2022/06/20 11:00:22;;;;;;;1.80;0.90;;;;;;;;;;5109881;28;20104;-71
2022/06/20 11:03:04;;;;;;;3.57;0.90;;;;;;;;;;5092791;28;20039;-71
2022/06/20 11:05:50;;;;;;;2.10;1.00;;;;;;;;;;5094984;28;20035;-71
2022/06/20 11:08:24;;;;;;;2.25;1.20;;;;;;;;;;5094693;28;20051;-71
2022/06/20 11:10:53;;;;;;;1.60;1.10;;;;;;;;;;5095641;28;20378;-70
2022/06/20 11:13:20;;;;;;;3.83;1.30;;;;;;;;;;5094617;28;20074;-71
2022/06/20 11:15:55;;;;;;;3.30;1.40;;;;;;;;;;5089210;28;20039;-71
2022/06/20 11:18:31;;;;;;;3.63;0.93;;;;;;;;;;5108921;28;20047;-71
2022/06/20 11:21:17;;;;;;;3.47;1.20;;;;;;;;;;5106028;28;20043;-71
2022/06/20 11:24:02;;;;;;;2.10;0.90;;;;;;;;;;5090744;28;20051;-71
2022/06/20 11:26:32;;;;;;;4.15;1.02;;;;;;;;;;5114560;28;20110;-71
2022/06/20 11:29:08;;;;;;;1.90;0.80;;;;;;;;;;5112382;28;20470;-71
2022/06/20 11:31:53;;;;;;;3.73;1.30;;;;;;;;;;5095918;28;20035;-71
2022/06/20 11:34:32;;;;;;;3.25;1.00;;;;;;;;;;5094376;28;20106;-71
2022/06/20 11:37:02;;;;;;;1.70;1.03;;;;;;;;;;5090927;28;20130;-71
2022/06/20 11:39:29;;;;;;;2.97;1.23;;;;;;;;;;5088641;28;20050;-71
2022/06/20 11:41:58;;;;;;;4.63;1.03;;;;;;;;;;5096087;28;20485;-71
2022/06/20 11:44:27;;;;;;;2.33;1.30;;;;;;;;;;5108434;28;20035;-71
2022/06/20 11:47:09;;;;;;;3.03;1.40;;;;;;;;;;5093818;28;20046;-71
2022/06/20 11:49:57;;;;;;;2.43;1.20;;;;;;;;;;5094034;28;20020;-71
2022/06/20 11:52:23;;;;;;;3.30;1.10;;;;;;;;;;5109796;28;20111;-71
2022/06/20 11:55:08;;;;;;;7.67;4.63;;;;;;;;;;5093876;28;20066;-71
2022/06/20 11:57:48;;;;;;;6.20;2.35;;;;;;;;;;5093747;28;20038;-71
2022/06/20 12:00:22;;;;;;;5.93;1.63;;;;;;;;;;5087998;28;20022;-71
2022/06/20 12:02:54;;;;;;;3.75;1.52;;;;;;;;;;5088777;28;20032;-71
2022/06/20 12:05:21;;;;;;;3.43;1.17;;;;;;;;;;5108733;28;20054;-71
2022/06/20 12:07:55;;;;;;;3.07;1.60;;;;;;;;;;5108163;28;20035;-71
2022/06/20 12:10:37;;;;;;;2.83;1.58;;;;;;;;;;5114039;28;20102;-71
2022/06/20 12:13:18;;;;;;;6.07;1.50;;;;;;;;;;5113462;28;20032;-70
2022/06/20 12:15:49;;;;;;;3.93;2.40;;;;;;;;;;5113534;28;20027;-71
2022/06/20 12:18:15;;;;;;;2.23;1.20;;;;;;;;;;5113172;28;20484;-70
2022/06/20 12:23:30;;;;;;;2.17;1.10;;;;;;;;;;5104068;28;20448;-71
2022/06/20 12:26:02;;;;;;;4.43;1.10;;;;;;;;;;5088318;28;20452;-70
2022/06/20 12:28:48;;;;;;;5.27;2.67;;;;;;;;;;5108096;28;20027;-70
2022/06/20 12:31:17;;;;;;;7.47;3.20;;;;;;;;;;5100730;28;20028;-70
2022/06/20 12:33:56;;;;;;;3.87;2.00;;;;;;;;;;5093137;28;20479;-70
2022/06/20 12:36:41;;;;;;;2.80;1.27;;;;;;;;;;5092926;28;20035;-70
2022/06/20 12:39:11;;;;;;;2.63;1.00;;;;;;;;;;5093098;28;20043;-70
2022/06/20 12:41:41;;;;;;;5.10;1.17;;;;;;;;;;5098216;28;20069;-70
2022/06/20 12:44:14;;;;;;;1.60;0.90;;;;;;;;;;5108260;28;20073;-70
2022/06/20 12:46:41;;;;;;;2.50;1.00;;;;;;;;;;5107302;28;20027;-70
2022/06/20 12:49:10;;;;;;;3.70;1.50;;;;;;;;;;5104897;28;20034;-70
2022/06/20 12:51:48;;;;;;;1.80;1.10;;;;;;;;;;5087424;28;20436;-70
2022/06/20 12:54:53;;;;;;;2.47;1.17;;;;;;;;;;5093387;28;20029;-70
2022/06/20 12:57:19;;;;;;;1.93;1.20;;;;;;;;;;4992052;28;20030;-70
2022/06/20 13:00:14;;;;;;;1.70;1.30;;;;;;;;;;4991290;28;20069;-71
2022/06/20 13:02:59;;;;;;;2.67;1.70;;;;;;;;;;5058909;28;20094;-70
2022/06/20 13:05:25;;;;;;;1.80;1.30;;;;;;;;;;5089867;28;20486;-71
2022/06/20 13:08:11;;;;;;;2.23;1.13;;;;;;;;;;5098062;28;20493;-70
2022/06/20 13:10:46;;;;;;;2.47;1.48;;;;;;;;;;5106282;28;20024;-71
2022/06/20 13:13:13;;;;;;;2.10;1.10;;;;;;;;;;5088742;28;20358;-70
2022/06/20 13:15:43;;;;;;;2.13;1.20;;;;;;;;;;5108768;28;20091;-70
2022/06/20 13:18:25;;;;;;;4.30;1.33;;;;;;;;;;5112687;28;20027;-70
2022/06/20 13:21:10;;;;;;;4.13;1.37;;;;;;;;;;5112510;28;20030;-71
2022/06/20 13:23:39;;;;;;;4.50;1.17;;;;;;;;;;5092393;28;20054;-70
2022/06/20 13:26:24;;;;;;;3.53;1.57;;;;;;;;;;5100467;28;20069;-70
2022/06/20 13:29:11;;;;;;;5.18;1.80;;;;;;;;;;5096269;28;20020;-71
2022/06/20 13:31:42;;;;;;;3.33;1.77;;;;;;;;;;5055573;28;20057;-70
2022/06/20 13:34:17;;;;;;;3.77;1.60;;;;;;;;;;5092228;28;20040;-71
2022/06/20 13:36:51;;;;;;;3.40;1.70;;;;;;;;;;5087583;28;20028;-70
2022/06/20 13:39:25;;;;;;;2.47;1.50;;;;;;;;;;5103419;28;20058;-70
2022/06/20 13:41:54;;;;;;;3.20;1.15;;;;;;;;;;5098861;28;20487;-70
2022/06/20 13:44:30;;;;;;;2.43;1.20;;;;;;;;;;5108433;28;20061;-70
2022/06/20 13:47:02;;;;;;;2.33;0.83;;;;;;;;;;5112311;28;20024;-71
2022/06/20 13:49:38;;;;;;;3.50;1.37;;;;;;;;;;5109607;28;20693;-71
2022/06/20 13:52:13;;;;;;;4.37;0.97;;;;;;;;;;5086549;28;20054;-71
2022/06/20 13:54:39;;;;;;;4.15;1.40;;;;;;;;;;5091840;28;20085;-70
2022/06/20 13:57:09;;;;;;;4.13;1.80;;;;;;;;;;5104362;28;20578;-70
2022/06/20 13:59:39;;;;;;;4.47;1.50;;;;;;;;;;5109249;28;20055;-71
2022/06/20 14:02:24;;;;;;;3.17;1.20;;;;;;;;;;5112110;28;20509;-71
2022/06/20 14:04:51;;;;;;;1.42;1.10;;;;;;;;;;5110552;28;20103;-71
2022/06/20 14:07:31;;;;;;;3.70;1.27;;;;;;;;;;5110077;28;20046;-71
2022/06/20 14:09:59;;;;;;;1.80;0.73;;;;;;;;;;5111976;28;20031;-71
2022/06/20 14:12:41;;;;;;;3.80;0.93;;;;;;;;;;5107353;28;20509;-71
2022/06/20 14:15:31;;;;;;;1.53;0.90;;;;;;;;;;5106137;28;20023;-71
2022/06/20 14:18:04;;;;;;;2.50;0.90;;;;;;;;;;5093331;28;20036;-72
2022/06/20 14:20:33;;;;;;;1.57;0.87;;;;;;;;;;5103495;28;20030;-71
2022/06/20 14:23:02;;;;;;;2.47;0.97;;;;;;;;;;5095516;28;20497;-71
2022/06/20 14:25:34;;;;;;;3.47;1.13;;;;;;;;;;5095562;28;20028;-71
2022/06/20 14:28:01;;;;;;;2.93;1.17;;;;;;;;;;5108758;28;20034;-71
2022/06/20 14:30:30;;;;;;;4.03;1.00;;;;;;;;;;5102194;28;20374;-72
2022/06/20 14:33:01;;;;;;;2.17;0.83;;;;;;;;;;5094807;28;20016;-72
2022/06/20 14:35:40;;;;;;;6.73;1.40;;;;;;;;;;5090829;28;20434;-72
2022/06/20 14:38:12;;;;;;;4.90;1.20;;;;;;;;;;5096031;28;20444;-72
2022/06/20 14:41:05;;;;;;;3.53;1.00;;;;;;;;;;5101416;28;20047;-71
2022/06/20 14:43:46;;;;;;;2.97;1.00;;;;;;;;;;5096144;28;20035;-72
2022/06/20 14:46:13;;;;;;;3.47;1.83;;;;;;;;;;5100389;28;20060;-72
2022/06/20 14:48:40;;;;;;;5.63;1.70;;;;;;;;;;5111283;28;20023;-72
2022/06/20 14:51:07;;;;;;;8.37;2.00;;;;;;;;;;5096000;28;20117;-71
2022/06/20 14:53:39;;;;;;;4.67;1.93;;;;;;;;;;5094992;28;20047;-71
2022/06/20 14:56:14;;;;;;;2.23;1.10;;;;;;;;;;5092095;28;20027;-71
2022/06/20 14:58:46;;;;;;;3.20;1.20;;;;;;;;;;5090670;28;20027;-71
2022/06/20 15:01:16;;;;;;;2.17;1.17;;;;;;;;;;5100826;28;20576;-72
2022/06/20 15:03:45;;;;;;;3.57;1.13;;;;;;;;;;5089361;28;20050;-71
2022/06/20 15:06:30;;;;;;;3.73;1.17;;;;;;;;;;5106372;28;20030;-72
2022/06/20 15:09:15;;;;;;;3.17;1.25;;;;;;;;;;5115049;28;20138;-71
2022/06/20 15:12:14;;;;;;;3.90;0.90;;;;;;;;;;5115202;28;20143;-71
2022/06/20 15:14:46;;;;;;;4.20;1.10;;;;;;;;;;5053704;28;20031;-72
2022/06/20 15:17:16;;;;;;;4.77;1.20;;;;;;;;;;5111264;28;20027;-71
2022/06/20 15:19:46;;;;;;;2.03;1.10;;;;;;;;;;5108682;28;20478;-72
2022/06/20 15:22:18;;;;;;;2.37;1.03;;;;;;;;;;5107809;28;20016;-72
2022/06/20 15:24:44;;;;;;;2.60;1.10;;;;;;;;;;5090707;28;20131;-72
2022/06/20 15:27:23;;;;;;;2.97;1.00;;;;;;;;;;5093403;28;20024;-72
2022/06/20 15:30:08;;;;;;;2.07;0.83;;;;;;;;;;5107985;28;20021;-71